M I D A S
Marine Information and Data Acquisition System
Tripno 2215 of the Zeeleeuw from 2011-11-18 06:19:57 to 2011-11-18 14:05:12
Back to CruiseResearch ActivitiesStationsMapUnderway DataData graphs

EquipmentUnitsComment
TimeDGPSUTC
LatitudeDGPSDM.mWGS84
LongitudeDGPSDM.mWGS84
HeadingGyrodeg 
SOGDGPSknotsSpeed over ground
COGDGPSdegCourse over ground
DepthEcho soundermeters200 kHz
Missing or incorrect values are displayed as -999
Navigation data collected by the RV Zeeleeuw from 2011-11-18 06:26:42 to 2011-11-18 14:21:20
                                                                                    Next 1000 lines
Time Latitude Longitude Heading SOG COG Depth
2011-11-18 06:26:51 51°13.639 2°56.019 124.6 -999 322 10.2
2011-11-18 06:26:56 51°13.639 2°56.019 124.8 0.1 151 10.2
2011-11-18 06:27:01 51°13.639 2°56.019 124.9 0.1 91 10.2
2011-11-18 06:27:06 51°13.639 2°56.019 125.1 -999 41 10.2
2011-11-18 06:27:11 51°13.64 2°56.019 125.1 0.1 357 10.2
2011-11-18 06:27:16 51°13.64 2°56.019 125.1 -999 20 10.2
2011-11-18 06:27:20 51°13.64 2°56.019 125.1 0.2 340 10.2
2011-11-18 06:27:26 51°13.64 2°56.019 125.1 0.2 347 10.3
2011-11-18 06:27:31 51°13.639 2°56.02 124.9 0.2 145 10.2
2011-11-18 06:27:35 51°13.64 2°56.019 124.9 -999 173 10.2
2011-11-18 06:27:40 51°13.64 2°56.02 124.9 0.1 334 10.2
2011-11-18 06:27:45 51°13.639 2°56.02 124.7 0.3 142 10.2
2011-11-18 06:27:51 51°13.639 2°56.02 124.7 0.1 167 10.2
2011-11-18 06:27:55 51°13.64 2°56.019 124.7 0.2 328 10.2
2011-11-18 06:28:00 51°13.64 2°56.02 124.7 0.2 333 10.2
2011-11-18 06:28:05 51°13.64 2°56.019 124.7 0.1 333 10.3
2011-11-18 06:28:10 51°13.641 2°56.019 124.8 0.1 330 10.3
2011-11-18 06:28:15 51°13.64 2°56.019 124.9 0.2 331 10.2
2011-11-18 06:28:19 51°13.64 2°56.02 124.9 -999 80 10.2
2011-11-18 06:28:25 51°13.64 2°56.02 124.9 0.1 150 10.2
2011-11-18 06:28:30 51°13.64 2°56.019 124.9 0.1 325 10.2
2011-11-18 06:28:35 51°13.64 2°56.019 124.9 0.1 337 10.2
2011-11-18 06:28:40 51°13.639 2°56.019 125 -999 39 10.2
2011-11-18 06:28:45 51°13.639 2°56.019 125 -999 347 10.2
2011-11-18 06:28:51 51°13.64 2°56.019 125 -999 273 10.1
2011-11-18 06:28:56 51°13.64 2°56.019 124.9 -999 312 10.2
2011-11-18 06:29:00 51°13.64 2°56.019 124.9 0.1 44 10.1
2011-11-18 06:29:06 51°13.64 2°56.019 124.7 0.1 319 10.1
2011-11-18 06:29:11 51°13.64 2°56.019 124.4 -999 291 10.2
2011-11-18 06:29:16 51°13.64 2°56.019 124.1 0.1 336 10.1
2011-11-18 06:29:20 51°13.64 2°56.02 123.9 0.1 119 10.1
2011-11-18 06:29:26 51°13.639 2°56.02 123.9 0.1 186 10.1
2011-11-18 06:29:31 51°13.638 2°56.019 123.8 0.1 210 10.1
2011-11-18 06:29:36 51°13.638 2°56.018 123.7 0.1 191 10.1
2011-11-18 06:29:40 51°13.638 2°56.018 123.7 -999 218 10.1
2011-11-18 06:29:46 51°13.639 2°56.019 123.7 -999 330 10.1
2011-11-18 06:29:50 51°13.64 2°56.019 123.7 -999 263 10.1
2011-11-18 06:29:56 51°13.64 2°56.019 123.7 -999 160 10.1
2011-11-18 06:30:00 51°13.639 2°56.019 123.6 0.1 340 10.1
2011-11-18 06:30:05 51°13.639 2°56.019 123.5 0.1 331 10.1
2011-11-18 06:30:10 51°13.639 2°56.019 123.5 -999 6 10.1
2011-11-18 06:30:15 51°13.639 2°56.019 123.5 0.1 329 10.1
2011-11-18 06:30:20 51°13.639 2°56.019 123.5 0.1 323 10.1
2011-11-18 06:30:25 51°13.639 2°56.019 123.6 -999 303 10.1
2011-11-18 06:30:30 51°13.639 2°56.019 123.9 -999 10 10.2
2011-11-18 06:30:35 51°13.638 2°56.018 124.4 0.1 232 10.2
2011-11-18 06:30:40 51°13.638 2°56.018 124.7 -999 199 10.2
2011-11-18 06:30:45 51°13.638 2°56.019 125.2 -999 119 10.2
2011-11-18 06:30:50 51°13.638 2°56.019 125.5 -999 97 10.2
2011-11-18 06:30:55 51°13.638 2°56.018 125.5 -999 286 10.1
2011-11-18 06:31:00 51°13.638 2°56.018 125.3 0.1 319 10.1
2011-11-18 06:31:05 51°13.638 2°56.018 124.9 0.1 347 10.1
2011-11-18 06:31:10 51°13.638 2°56.019 124.9 0.2 158 10.2
2011-11-18 06:31:15 51°13.637 2°56.018 124.8 -999 319 10.1
2011-11-18 06:31:21 51°13.634 2°56.016 124.7 0.1 329 10.1
2011-11-18 06:31:25 51°13.634 2°56.016 124.6 0.1 321 10.1
2011-11-18 06:31:30 51°13.633 2°56.016 124.6 0.1 189 10.2
2011-11-18 06:31:35 51°13.633 2°56.016 124.6 0.1 227 10.1
2011-11-18 06:31:40 51°13.634 2°56.016 124.6 0.1 275 10.2
2011-11-18 06:31:46 51°13.635 2°56.017 124.9 -999 198 10.3
2011-11-18 06:31:51 51°13.635 2°56.017 125.1 0.1 220 10.2
2011-11-18 06:31:56 51°13.635 2°56.017 125.5 0.1 202 10.2
2011-11-18 06:32:01 51°13.636 2°56.017 125.8 0.1 289 10.2
2011-11-18 06:32:06 51°13.637 2°56.017 126.2 0.2 328 10.3
2011-11-18 06:32:10 51°13.637 2°56.017 126.4 0.2 326 10.2
2011-11-18 06:32:16 51°13.637 2°56.017 126.6 -999 334 10.6
2011-11-18 06:32:20 51°13.637 2°56.017 126.8 0.1 338 10.2
2011-11-18 06:32:26 51°13.637 2°56.017 126.9 0.1 5 10.2
2011-11-18 06:32:30 51°13.637 2°56.017 127 -999 358 10.2
2011-11-18 06:32:36 51°13.638 2°56.018 127 -999 28 10.2
2011-11-18 06:32:40 51°13.639 2°56.018 126.9 0.1 80 10.2
2011-11-18 06:32:45 51°13.638 2°56.018 126.7 0.1 70 10.2
2011-11-18 06:32:50 51°13.638 2°56.018 126.6 0.1 68 10.1
2011-11-18 06:32:56 51°13.638 2°56.018 126.2 0.1 34 10.1
2011-11-18 06:33:01 51°13.638 2°56.018 125.3 0.1 130 10.1
2011-11-18 06:33:06 51°13.638 2°56.018 124.2 -999 269 10.1
2011-11-18 06:33:11 51°13.637 2°56.018 123.1 0.1 217 10.1
2011-11-18 06:33:15 51°13.637 2°56.018 122.2 -999 194 10.2
2011-11-18 06:33:21 51°13.636 2°56.018 121.6 0.1 177 10.1
2011-11-18 06:33:26 51°13.636 2°56.018 120.6 0.2 165 10.2
2011-11-18 06:33:31 51°13.637 2°56.018 119.5 0.1 285 10.3
2011-11-18 06:33:36 51°13.637 2°56.018 118.4 0.1 248 10.3
2011-11-18 06:33:41 51°13.637 2°56.018 117 0.1 181 10.5
2011-11-18 06:33:46 51°13.636 2°56.018 115.6 0.1 222 10.7
2011-11-18 06:33:51 51°13.635 2°56.018 114.3 0.2 167 10.7
2011-11-18 06:33:56 51°13.635 2°56.018 112.8 0.3 168 10.7
2011-11-18 06:34:00 51°13.635 2°56.018 111.4 0.3 177 10.7
2011-11-18 06:34:05 51°13.635 2°56.017 110.1 0.1 261 10.7
2011-11-18 06:34:10 51°13.635 2°56.017 108.8 0.1 255 10.7
2011-11-18 06:34:15 51°13.635 2°56.017 107.5 0.1 199 10.7
2011-11-18 06:34:20 51°13.635 2°56.017 106.2 0.2 184 10.6
2011-11-18 06:34:25 51°13.634 2°56.017 104.9 0.2 181 10.6
2011-11-18 06:34:30 51°13.634 2°56.017 103.7 0.2 222 10.6
2011-11-18 06:34:35 51°13.634 2°56.016 102.7 0.5 264 10.6
2011-11-18 06:34:40 51°13.634 2°56.014 101.9 0.9 274 10.7
2011-11-18 06:34:45 51°13.635 2°56.011 101.5 1.4 284 10.6
2011-11-18 06:34:51 51°13.636 2°56.006 101.4 1.8 281 10.6
2011-11-18 06:34:55 51°13.636 2°56.002 101.7 2.3 281 10.6
2011-11-18 06:35:00 51°13.637 2°55.997 102.7 2.6 283 -999
2011-11-18 06:35:07 51°13.639 2°55.988 103.8 3 286 -999
2011-11-18 06:35:13 51°13.64 2°55.98 105 3.2 286 -999
2011-11-18 06:35:19 51°13.642 2°55.971 105.9 3.3 290 -999
2011-11-18 06:35:24 51°13.644 2°55.964 106.8 3.4 290 -999
2011-11-18 06:35:29 51°13.645 2°55.957 107.4 3.5 288 -999
2011-11-18 06:35:33 51°13.647 2°55.951 107.6 3.5 290 -999
2011-11-18 06:35:39 51°13.649 2°55.942 108.1 3.4 290 -999
2011-11-18 06:35:44 51°13.65 2°55.936 108.6 3.1 289 -999
2011-11-18 06:35:49 51°13.651 2°55.93 108.6 2.4 291 -999
2011-11-18 06:35:54 51°13.652 2°55.927 109.2 1.5 293 -999
2011-11-18 06:35:59 51°13.652 2°55.926 110.5 0.6 291 -999
2011-11-18 06:36:04 51°13.652 2°55.925 113.2 0.6 274 -999
2011-11-18 06:36:09 51°13.654 2°55.922 116.4 1.1 300 -999
2011-11-18 06:36:14 51°13.655 2°55.92 118.3 1.4 301 -999
2011-11-18 06:36:19 51°13.656 2°55.917 119.2 1.7 300 -999
2011-11-18 06:36:24 51°13.657 2°55.913 120.1 2 302 11.6
2011-11-18 06:36:29 51°13.659 2°55.908 121 2.3 300 11.7
2011-11-18 06:36:34 51°13.661 2°55.904 121.4 2.6 302 -999
2011-11-18 06:36:39 51°13.663 2°55.898 122.3 3 303 -999
2011-11-18 06:36:44 51°13.666 2°55.893 123.2 3.2 305 -999
2011-11-18 06:36:49 51°13.669 2°55.886 123.7 3.5 305 -999
2011-11-18 06:36:54 51°13.673 2°55.881 124.1 3.7 306 -999
2011-11-18 06:36:59 51°13.675 2°55.874 124.2 3.6 305 -999
2011-11-18 06:37:04 51°13.678 2°55.867 124.6 3.6 305 -999
2011-11-18 06:37:09 51°13.681 2°55.86 124.9 3.5 304 -999
2011-11-18 06:37:13 51°13.683 2°55.855 125.2 3.6 306 -999
2011-11-18 06:37:19 51°13.687 2°55.847 125.9 3.8 306 -999
2011-11-18 06:37:24 51°13.691 2°55.84 126.7 3.9 308 -999
2011-11-18 06:37:29 51°13.694 2°55.833 127.9 3.9 308 -999
2011-11-18 06:37:33 51°13.696 2°55.828 128.9 3.9 309 -999
2011-11-18 06:37:39 51°13.7 2°55.819 129.8 3.9 310 -999
2011-11-18 06:37:44 51°13.704 2°55.812 130.6 4.1 310 -999
2011-11-18 06:37:49 51°13.707 2°55.806 131.5 4 309 -999
2011-11-18 06:37:53 51°13.71 2°55.8 132.4 4 311 -999
2011-11-18 06:37:58 51°13.715 2°55.793 133.1 4.3 312 -999
2011-11-18 06:38:04 51°13.72 2°55.784 134.1 4.3 313 -999
2011-11-18 06:38:09 51°13.724 2°55.777 134.7 4.5 314 -999
2011-11-18 06:38:14 51°13.729 2°55.77 135.2 4.6 315 -999
2011-11-18 06:38:19 51°13.733 2°55.763 135.8 4.6 315 -999
2011-11-18 06:38:24 51°13.738 2°55.756 136.1 4.6 316 -999
2011-11-18 06:38:29 51°13.742 2°55.749 136.4 4.6 317 -999
2011-11-18 06:38:34 51°13.747 2°55.742 136.6 4.8 318 -999
2011-11-18 06:38:39 51°13.752 2°55.734 137 4.9 318 -999
2011-11-18 06:38:44 51°13.757 2°55.727 137.3 4.8 318 -999
2011-11-18 06:38:49 51°13.762 2°55.719 137.4 5.1 318 -999
2011-11-18 06:38:54 51°13.768 2°55.712 137.5 5.3 319 -999
2011-11-18 06:38:59 51°13.774 2°55.704 137.7 5.5 320 -999
2011-11-18 06:39:04 51°13.779 2°55.696 138 5.4 320 -999
2011-11-18 06:39:09 51°13.785 2°55.689 138.2 5.2 319 -999
2011-11-18 06:39:14 51°13.79 2°55.681 138.6 5.2 320 -999
2011-11-18 06:39:19 51°13.795 2°55.674 139 5 320 -999
2011-11-18 06:39:24 51°13.801 2°55.667 140 5.1 321 -999
2011-11-18 06:39:29 51°13.806 2°55.66 141.4 4.8 322 -999
2011-11-18 06:39:34 51°13.812 2°55.654 143.1 4.7 323 -999
2011-11-18 06:39:38 51°13.816 2°55.649 145 4.7 325 -999
2011-11-18 06:39:43 51°13.822 2°55.644 146.9 4.6 327 -999
2011-11-18 06:39:49 51°13.828 2°55.637 148.9 4.7 329 -999
2011-11-18 06:39:53 51°13.833 2°55.633 151.5 4.7 330 -999
2011-11-18 06:39:58 51°13.838 2°55.628 154.5 4.8 334 -999
2011-11-18 06:40:04 51°13.845 2°55.624 158.1 4.7 338 -999
2011-11-18 06:40:09 51°13.852 2°55.62 161.8 4.8 342 -999
2011-11-18 06:40:13 51°13.857 2°55.617 165.4 4.9 344 -999
2011-11-18 06:40:18 51°13.863 2°55.615 168.2 4.6 346 -999
2011-11-18 06:40:24 51°13.871 2°55.614 172 4.4 349 -999
2011-11-18 06:40:29 51°13.877 2°55.612 175 4.5 352 -999
2011-11-18 06:40:34 51°13.883 2°55.612 177.9 4.5 354 -999
2011-11-18 06:40:39 51°13.889 2°55.611 180.9 4.4 356 -999
2011-11-18 06:40:43 51°13.894 2°55.611 183.9 4.2 1 -999
2011-11-18 06:40:49 51°13.902 2°55.611 186.5 4.1 4 -999
2011-11-18 06:40:54 51°13.907 2°55.612 189.7 4.1 7 -999
2011-11-18 06:40:59 51°13.912 2°55.614 193.1 3.9 9 -999
2011-11-18 06:41:04 51°13.917 2°55.616 196.5 3.9 13 -999
2011-11-18 06:41:09 51°13.922 2°55.619 200.1 3.8 18 -999
2011-11-18 06:41:14 51°13.927 2°55.621 203.6 3.8 19 -999
2011-11-18 06:41:19 51°13.932 2°55.625 208 3.7 24 -999
2011-11-18 06:41:23 51°13.936 2°55.628 211.3 3.8 26 -999
2011-11-18 06:41:29 51°13.941 2°55.632 214.2 3.9 30 -999
2011-11-18 06:41:34 51°13.946 2°55.637 216.3 3.8 34 -999
2011-11-18 06:41:39 51°13.95 2°55.641 219.5 3.7 35 -999
2011-11-18 06:41:44 51°13.954 2°55.646 222.1 3.7 35 -999
2011-11-18 06:41:49 51°13.958 2°55.65 224.1 3.5 38 -999
2011-11-18 06:41:54 51°13.961 2°55.656 226.3 3.3 43 -999
2011-11-18 06:41:59 51°13.964 2°55.661 228.7 3.1 44 -999
2011-11-18 06:42:04 51°13.967 2°55.665 229.9 2.9 43 -999
2011-11-18 06:42:08 51°13.968 2°55.669 231.9 2.5 43 -999
2011-11-18 06:42:13 51°13.97 2°55.673 233.7 2.3 39 12.4
2011-11-18 06:42:18 51°13.972 2°55.676 235.1 1.9 38 12.2
2011-11-18 06:42:23 51°13.973 2°55.678 237.2 1.4 42 12
2011-11-18 06:42:28 51°13.974 2°55.679 239.6 1 35 12
2011-11-18 06:42:33 51°13.975 2°55.678 242.7 0.7 358 12.1
2011-11-18 06:42:39 51°13.976 2°55.677 246.8 0.7 317 12
2011-11-18 06:42:44 51°13.977 2°55.674 252.4 1.1 298 12.3
2011-11-18 06:42:49 51°13.977 2°55.671 259.1 1.7 294 12.1
2011-11-18 06:42:53 51°13.978 2°55.667 266.5 2.1 287 12.1
2011-11-18 06:42:58 51°13.979 2°55.661 274.4 3 292 12.3
2011-11-18 06:43:03 51°13.981 2°55.654 281.5 3.4 291 12.5
2011-11-18 06:43:09 51°13.983 2°55.644 286.1 4 292 12.5
2011-11-18 06:43:13 51°13.986 2°55.637 289.2 4.3 293 12.5
2011-11-18 06:43:18 51°13.989 2°55.627 291.6 4.8 295 12.6
2011-11-18 06:43:23 51°13.992 2°55.617 293.3 5.2 297 12.7
2011-11-18 06:43:28 51°13.996 2°55.606 294.9 5.5 298 12.5
2011-11-18 06:43:33 51°14 2°55.595 296.2 5.8 298 12.6
2011-11-18 06:43:37 51°14.003 2°55.585 297.3 6.1 299 12.6
2011-11-18 06:43:42 51°14.008 2°55.573 298.1 6.4 301 13.2
2011-11-18 06:43:47 51°14.013 2°55.561 299.9 6.6 303 13.3
2011-11-18 06:43:53 51°14.019 2°55.546 301 6.8 304 13
2011-11-18 06:43:57 51°14.024 2°55.536 302.5 6.9 306 13
2011-11-18 06:44:02 51°14.029 2°55.524 304.2 6.9 308 12.6
2011-11-18 06:44:07 51°14.036 2°55.512 307.3 7 313 13
2011-11-18 06:44:12 51°14.043 2°55.502 310.9 6.8 315 12.7
2011-11-18 06:44:17 51°14.05 2°55.492 314.9 6.8 320 12.6
2011-11-18 06:44:22 51°14.058 2°55.483 319.4 6.8 324 12.5
2011-11-18 06:44:27 51°14.066 2°55.475 323.6 6.8 326 12.6
2011-11-18 06:44:32 51°14.073 2°55.467 325.9 6.7 328 13.1
2011-11-18 06:44:37 51°14.081 2°55.459 328.4 6.6 330 12.5
2011-11-18 06:44:41 51°14.088 2°55.454 330.3 6.7 332 12.5
2011-11-18 06:44:46 51°14.096 2°55.446 331.7 6.8 332 12.4
2011-11-18 06:44:53 51°14.108 2°55.437 332.5 6.8 332 12.4
2011-11-18 06:44:58 51°14.116 2°55.43 333 6.8 333 12.4
2011-11-18 06:45:02 51°14.123 2°55.425 333.6 6.9 334 12.4
2011-11-18 06:45:07 51°14.132 2°55.418 334.3 6.9 334 12.4
2011-11-18 06:45:12 51°14.141 2°55.412 334.7 7.1 334 12.4
2011-11-18 06:45:18 51°14.151 2°55.404 335.2 7 335 -999
2011-11-18 06:45:23 51°14.16 2°55.397 335.3 7 335 -999
2011-11-18 06:45:29 51°14.17 2°55.389 335.4 7 336 -999
2011-11-18 06:45:34 51°14.179 2°55.383 335.4 7.1 335 -999
2011-11-18 06:45:38 51°14.187 2°55.377 335.8 7.1 336 -999
2011-11-18 06:45:43 51°14.196 2°55.371 336.2 7.3 336 -999
2011-11-18 06:45:48 51°14.205 2°55.364 336.4 7.3 336 -999
2011-11-18 06:45:54 51°14.217 2°55.356 336.4 7.6 336 -999
2011-11-18 06:45:59 51°14.226 2°55.349 336.3 7.6 335 -999
2011-11-18 06:46:04 51°14.235 2°55.342 335.8 7.5 334 -999
2011-11-18 06:46:08 51°14.242 2°55.336 334.3 7.6 333 12.4
2011-11-18 06:46:14 51°14.253 2°55.327 332.5 7.7 332 -999
2011-11-18 06:46:19 51°14.263 2°55.319 331.3 7.7 331 12.4
2011-11-18 06:46:23 51°14.271 2°55.312 331.4 7.9 332 -999
2011-11-18 06:46:29 51°14.282 2°55.302 332.1 7.8 332 -999
2011-11-18 06:46:34 51°14.292 2°55.294 332.6 8 332 12.6
2011-11-18 06:46:39 51°14.302 2°55.285 332.9 8.1 332 12.2
2011-11-18 06:46:44 51°14.312 2°55.277 332.6 8.1 332 -999
2011-11-18 06:46:49 51°14.322 2°55.268 332.6 8.1 333 12.4
2011-11-18 06:46:54 51°14.332 2°55.259 332.6 8.2 331 12.6
2011-11-18 06:46:59 51°14.343 2°55.251 332.5 8.4 332 12
2011-11-18 06:47:04 51°14.353 2°55.242 332.4 8.7 331 12.1
2011-11-18 06:47:09 51°14.364 2°55.233 332.1 8.8 331 -999
2011-11-18 06:47:14 51°14.374 2°55.223 331.7 8.8 329 12.5
2011-11-18 06:47:19 51°14.384 2°55.213 330.2 8.8 328 12.5
2011-11-18 06:47:24 51°14.394 2°55.202 328.3 8.7 326 12.6
2011-11-18 06:47:28 51°14.403 2°55.193 326.7 9 326 12.6
2011-11-18 06:47:34 51°14.415 2°55.179 325.9 9.1 326 -999
2011-11-18 06:47:39 51°14.425 2°55.168 325.6 9.1 324 12.7
2011-11-18 06:47:44 51°14.435 2°55.156 325.2 9 323 12.9
2011-11-18 06:47:48 51°14.443 2°55.146 323.8 9.1 322 12.4
2011-11-18 06:47:53 51°14.453 2°55.133 322.4 9.2 322 12.2
2011-11-18 06:47:58 51°14.463 2°55.121 322 9.2 322 12.3
2011-11-18 06:48:03 51°14.473 2°55.108 322.3 9.3 322 12.8
2011-11-18 06:48:08 51°14.484 2°55.095 322.4 9.5 322 12.9
2011-11-18 06:48:14 51°14.496 2°55.079 322.4 9.6 321 13.2
2011-11-18 06:48:19 51°14.507 2°55.065 322.3 9.9 322 13.1
2011-11-18 06:48:24 51°14.518 2°55.051 321.9 10.1 321 13.3
2011-11-18 06:48:29 51°14.529 2°55.038 321.5 10 321 13.3
2011-11-18 06:48:33 51°14.538 2°55.027 321.1 10.1 322 13.3
2011-11-18 06:48:38 51°14.549 2°55.013 321.7 10.2 324 13.6
2011-11-18 06:48:43 51°14.561 2°55 323.8 10.3 326 13.6
2011-11-18 06:48:48 51°14.574 2°54.987 325.5 10.6 325 13.7
2011-11-18 06:48:53 51°14.586 2°54.974 326 10.8 326 13.5
2011-11-18 06:48:57 51°14.596 2°54.963 325.6 10.7 324 13.7
2011-11-18 06:49:03 51°14.61 2°54.945 324.1 10.9 322 13.5
2011-11-18 06:49:08 51°14.622 2°54.93 322.2 11 322 13.5
2011-11-18 06:49:13 51°14.634 2°54.915 320.4 11.1 323 13.6
2011-11-18 06:49:17 51°14.645 2°54.904 320.2 11.2 325 13.4
2011-11-18 06:49:23 51°14.66 2°54.888 322 11.2 326 13.6
2011-11-18 06:49:28 51°14.673 2°54.873 322.8 11.4 325 13.5
2011-11-18 06:49:33 51°14.687 2°54.86 322.5 11.6 327 13.2
2011-11-18 06:49:37 51°14.697 2°54.849 323.1 11.5 327 13.2
2011-11-18 06:49:42 51°14.71 2°54.836 323.9 11.4 327 13.3
2011-11-18 06:49:47 51°14.724 2°54.82 324.3 11.6 325 13.2
2011-11-18 06:49:52 51°14.737 2°54.805 322.6 11.7 324 13.2
2011-11-18 06:49:57 51°14.75 2°54.789 320.4 11.7 322 13.2
2011-11-18 06:50:01 51°14.76 2°54.777 319.6 11.8 324 13.2
2011-11-18 06:50:06 51°14.774 2°54.762 320.9 11.9 324 13.1
2011-11-18 06:50:12 51°14.79 2°54.743 321.6 12 324 13.4
2011-11-18 06:50:17 51°14.803 2°54.727 321.3 12 324 13.6
2011-11-18 06:50:21 51°14.814 2°54.714 321.2 12.1 324 13.5
2011-11-18 06:50:26 51°14.828 2°54.698 320.9 12.1 323 13.6
2011-11-18 06:50:31 51°14.842 2°54.681 320.3 12.2 323 13.7
2011-11-18 06:50:36 51°14.856 2°54.665 320 12.4 323 13.6
2011-11-18 06:50:41 51°14.869 2°54.649 320.1 12.4 324 13.7
2011-11-18 06:50:46 51°14.884 2°54.633 320.5 12.4 324 13.6
2011-11-18 06:50:51 51°14.898 2°54.617 321.2 12.5 325 13.7
2011-11-18 06:50:56 51°14.912 2°54.601 322.1 12.6 326 13.5
2011-11-18 06:51:01 51°14.927 2°54.585 322.7 12.7 326 13.6
2011-11-18 06:51:05 51°14.939 2°54.573 323.5 12.6 326 13.3
2011-11-18 06:51:10 51°14.954 2°54.558 324.5 12.7 328 13.1
2011-11-18 06:51:15 51°14.969 2°54.543 324.8 12.7 328 13.1
2011-11-18 06:51:20 51°14.984 2°54.529 325.4 12.8 329 13
2011-11-18 06:51:25 51°14.999 2°54.513 325.7 12.8 328 12.9
2011-11-18 06:51:30 51°15.014 2°54.498 325.4 12.7 327 12.9
2011-11-18 06:51:35 51°15.028 2°54.482 323.7 12.8 324 12.9
2011-11-18 06:51:41 51°15.045 2°54.462 322.3 12.6 323 12.8
2011-11-18 06:51:45 51°15.055 2°54.448 320.9 12.5 320 12.8
2011-11-18 06:51:50 51°15.068 2°54.429 318.3 12.5 318 12.8
2011-11-18 06:51:55 51°15.081 2°54.411 316.3 12.5 318 12.9
2011-11-18 06:52:00 51°15.094 2°54.392 315.2 12.4 317 12.9
2011-11-18 06:52:05 51°15.106 2°54.373 314.7 12.5 317 12.8
2011-11-18 06:52:10 51°15.119 2°54.354 314.5 12.4 317 13.2
2011-11-18 06:52:15 51°15.132 2°54.335 314.3 12.5 317 13.3
2011-11-18 06:52:20 51°15.145 2°54.316 315.1 12.7 319 13.4
2011-11-18 06:52:25 51°15.159 2°54.297 316 12.8 319 13.1
2011-11-18 06:52:30 51°15.172 2°54.281 318 12.7 323 13.4
2011-11-18 06:52:35 51°15.187 2°54.265 320.9 12.7 324 13.4
2011-11-18 06:52:41 51°15.204 2°54.246 322.3 12.7 325 13.3
2011-11-18 06:52:46 51°15.218 2°54.23 322.6 12.5 324 13.4
2011-11-18 06:52:50 51°15.229 2°54.217 322.9 12.6 325 13.2
2011-11-18 06:52:56 51°15.246 2°54.197 323 12.6 324 13.3
2011-11-18 06:53:01 51°15.261 2°54.181 322.9 12.6 325 13.3
2011-11-18 06:53:06 51°15.275 2°54.164 322.4 12.7 324 13.3
2011-11-18 06:53:10 51°15.286 2°54.151 322.3 12.7 325 13.4
2011-11-18 06:53:15 51°15.3 2°54.134 322.1 12.6 324 13.3
2011-11-18 06:53:20 51°15.315 2°54.118 322 12.8 324 13.3
2011-11-18 06:53:26 51°15.331 2°54.098 322 12.7 323 13.3
2011-11-18 06:53:30 51°15.343 2°54.084 321.7 12.7 324 13.5
2011-11-18 06:53:35 51°15.356 2°54.068 321.6 12.6 323 13.3
2011-11-18 06:53:40 51°15.37 2°54.051 321.6 12.7 324 13.3
2011-11-18 06:53:45 51°15.384 2°54.035 321.6 12.7 324 13.4
2011-11-18 06:53:50 51°15.399 2°54.018 321.6 12.7 324 13.4
2011-11-18 06:53:55 51°15.413 2°54.001 321.4 12.6 323 13.4
2011-11-18 06:54:00 51°15.426 2°53.984 320.7 12.6 322 13.4
2011-11-18 06:54:06 51°15.443 2°53.963 319.7 12.6 321 13.4
2011-11-18 06:54:10 51°15.453 2°53.949 319.4 12.6 321 13.4
2011-11-18 06:54:15 51°15.467 2°53.931 318.9 12.6 320 13.4
2011-11-18 06:54:20 51°15.48 2°53.913 318.5 12.6 321 13.5
2011-11-18 06:54:25 51°15.494 2°53.895 318.4 12.6 320 13.4
2011-11-18 06:54:30 51°15.507 2°53.877 317.7 12.6 319 13.6
2011-11-18 06:54:35 51°15.52 2°53.859 317.3 12.6 319 13.3
2011-11-18 06:54:40 51°15.533 2°53.841 317.3 12.6 320 13.5
2011-11-18 06:54:45 51°15.547 2°53.822 317.2 12.6 319 13.5
2011-11-18 06:54:50 51°15.56 2°53.804 316.8 12.6 319 13.5
2011-11-18 06:54:55 51°15.573 2°53.786 317.1 12.6 320 13.4
2011-11-18 06:55:00 51°15.587 2°53.768 317.4 12.6 320 13.3
2011-11-18 06:55:05 51°15.6 2°53.75 318 12.6 321 13.4
2011-11-18 06:55:10 51°15.613 2°53.733 319.1 12.6 322 13.4
2011-11-18 06:55:15 51°15.627 2°53.716 319.9 12.6 323 13.5
2011-11-18 06:55:20 51°15.641 2°53.699 320.8 12.6 324 13.6
2011-11-18 06:55:25 51°15.655 2°53.682 321.4 12.6 324 13.4
2011-11-18 06:55:30 51°15.669 2°53.666 321.6 12.7 324 13.5
2011-11-18 06:55:36 51°15.687 2°53.647 322.3 12.6 325 13.5
2011-11-18 06:55:40 51°15.698 2°53.634 323 12.7 326 13.6
2011-11-18 06:55:45 51°15.713 2°53.619 323.7 12.7 326 13.5
2011-11-18 06:55:50 51°15.728 2°53.603 323.9 12.6 326 13.6
2011-11-18 06:55:54 51°15.739 2°53.591 324.3 12.7 327 13.6
2011-11-18 06:56:00 51°15.757 2°53.572 324.3 12.7 326 13.7
2011-11-18 06:56:05 51°15.772 2°53.556 323.7 12.7 325 13.8
2011-11-18 06:56:11 51°15.789 2°53.537 323 12.7 325 13.8
2011-11-18 06:56:15 51°15.801 2°53.524 322.5 12.6 325 13.9
2011-11-18 06:56:20 51°15.815 2°53.508 322.3 12.7 324 13.9
2011-11-18 06:56:25 51°15.829 2°53.491 321.6 12.6 324 13.7
2011-11-18 06:56:30 51°15.843 2°53.475 321.3 12.6 324 13.9
2011-11-18 06:56:36 51°15.86 2°53.454 320.9 12.6 323 13.9
2011-11-18 06:56:40 51°15.871 2°53.441 320.4 12.6 323 13.9
2011-11-18 06:56:46 51°15.888 2°53.421 320 12.6 323 13.8
2011-11-18 06:56:51 51°15.902 2°53.403 319.7 12.6 323 13.9
2011-11-18 06:56:55 51°15.913 2°53.391 320.4 12.6 325 13.7
2011-11-18 06:57:00 51°15.928 2°53.375 322.1 12.7 326 13.7
2011-11-18 06:57:05 51°15.942 2°53.359 323.1 12.7 327 14
2011-11-18 06:57:11 51°15.96 2°53.342 324.5 12.7 329 14
2011-11-18 06:57:15 51°15.972 2°53.331 326 12.7 329 13.2
2011-11-18 06:57:20 51°15.988 2°53.317 327.7 12.7 333 13.4
2011-11-18 06:57:25 51°16.004 2°53.305 329.6 12.8 333 13.5
2011-11-18 06:57:30 51°16.02 2°53.292 330.7 12.8 335 13.8
2011-11-18 06:57:35 51°16.036 2°53.28 331.3 12.8 334 13.4
2011-11-18 06:57:40 51°16.052 2°53.268 331.9 12.8 335 13.5
2011-11-18 06:57:45 51°16.068 2°53.256 332.5 12.8 336 13.5
2011-11-18 06:57:50 51°16.084 2°53.245 333.4 12.8 337 13.5
2011-11-18 06:57:55 51°16.1 2°53.233 333.8 12.8 336 13.5
2011-11-18 06:58:00 51°16.116 2°53.222 333.6 12.8 337 13.7
2011-11-18 06:58:05 51°16.133 2°53.211 334 12.9 337 13.6
2011-11-18 06:58:10 51°16.149 2°53.199 334.1 12.9 337 13.7
2011-11-18 06:58:15 51°16.165 2°53.188 334.4 12.9 337 13.6
2011-11-18 06:58:21 51°16.185 2°53.175 334 12.9 336 13.6
2011-11-18 06:58:25 51°16.197 2°53.165 333.3 12.8 336 13.6
2011-11-18 06:58:30 51°16.213 2°53.154 333.2 12.8 336 13.7
2011-11-18 06:58:35 51°16.23 2°53.142 333.4 12.8 336 13.6
2011-11-18 06:58:40 51°16.246 2°53.131 333.5 12.8 336 13.7
2011-11-18 06:58:45 51°16.262 2°53.119 333.7 12.8 337 13.7
2011-11-18 06:58:51 51°16.281 2°53.106 334.2 12.8 336 13.8
2011-11-18 06:58:56 51°16.298 2°53.094 333.5 12.8 335 13.7
2011-11-18 06:59:00 51°16.31 2°53.084 332.5 12.8 334 13.7
2011-11-18 06:59:05 51°16.326 2°53.072 331.7 12.8 334 13.7
2011-11-18 06:59:11 51°16.345 2°53.057 331.3 12.8 334 13.8
2011-11-18 06:59:16 51°16.36 2°53.044 330.5 12.8 333 13.7
2011-11-18 06:59:20 51°16.373 2°53.033 329.1 12.7 331 13.7
2011-11-18 06:59:25 51°16.388 2°53.019 327.9 12.7 330 13.6
2011-11-18 06:59:31 51°16.406 2°53.001 327.1 12.6 329 13.9
2011-11-18 06:59:36 51°16.422 2°52.988 326.7 12.6 330 13.8
2011-11-18 06:59:40 51°16.434 2°52.976 326.5 12.7 330 13.7
2011-11-18 06:59:45 51°16.449 2°52.962 326.8 12.7 331 13.6
2011-11-18 06:59:50 51°16.464 2°52.948 327.4 12.6 330 13.5
2011-11-18 06:59:56 51°16.482 2°52.931 326.9 12.7 330 13.6
2011-11-18 07:00:00 51°16.494 2°52.92 327.1 12.6 331 13.6
2011-11-18 07:00:05 51°16.51 2°52.907 327.7 12.7 331 13.7
2011-11-18 07:00:10 51°16.526 2°52.894 328 12.8 332 13.5
2011-11-18 07:00:15 51°16.542 2°52.881 329 12.8 334 13.4
2011-11-18 07:00:20 51°16.558 2°52.869 330.2 12.8 334 13.2
2011-11-18 07:00:25 51°16.574 2°52.857 331.3 12.9 335 13.2
2011-11-18 07:00:30 51°16.59 2°52.845 332.5 12.8 337 13.3
2011-11-18 07:00:35 51°16.606 2°52.834 333.5 12.8 337 13
2011-11-18 07:00:40 51°16.623 2°52.823 334.2 12.7 337 12.9
2011-11-18 07:00:46 51°16.643 2°52.81 334.6 12.9 337 13
2011-11-18 07:00:51 51°16.659 2°52.799 334.4 12.9 337 12.6
2011-11-18 07:00:56 51°16.676 2°52.788 334.3 12.9 336 12.6
2011-11-18 07:01:00 51°16.689 2°52.778 333.8 12.9 336 12.5
2011-11-18 07:01:06 51°16.708 2°52.765 333.3 12.9 337 12.5
2011-11-18 07:01:10 51°16.721 2°52.755 333.3 12.8 336 12.2
2011-11-18 07:01:16 51°16.74 2°52.742 333.6 12.8 336 11.8
2011-11-18 07:01:20 51°16.753 2°52.733 333.6 12.8 336 11.6
2011-11-18 07:01:25 51°16.77 2°52.721 333.8 12.9 337 11.4
2011-11-18 07:01:31 51°16.789 2°52.708 334.4 12.9 337 11.5
2011-11-18 07:01:36 51°16.805 2°52.697 334.4 12.8 336 11.4
2011-11-18 07:01:40 51°16.818 2°52.688 333.9 12.8 337 11.4
2011-11-18 07:01:45 51°16.834 2°52.676 333.8 12.9 337 11.1
2011-11-18 07:01:50 51°16.851 2°52.665 333.8 13 336 11.2
2011-11-18 07:01:56 51°16.87 2°52.651 333.5 13 336 11.1
2011-11-18 07:02:00 51°16.883 2°52.642 333.3 12.9 336 11.2
2011-11-18 07:02:05 51°16.899 2°52.63 332.8 12.8 335 11.4
2011-11-18 07:02:10 51°16.915 2°52.618 332.4 13.3 337 11.4
2011-11-18 07:02:16 51°16.935 2°52.604 332.5 13.4 337 11.4
2011-11-18 07:02:20 51°16.948 2°52.594 332.5 13 335 11.4
2011-11-18 07:02:25 51°16.963 2°52.581 331.8 13 335 11.5
2011-11-18 07:02:30 51°16.979 2°52.569 331.7 12.9 335 11.5
2011-11-18 07:02:35 51°16.995 2°52.556 331.5 12.9 334 11.2
2011-11-18 07:02:40 51°17.011 2°52.544 331.3 12.8 334 11.2
2011-11-18 07:02:45 51°17.027 2°52.531 331.2 12.8 334 11.2
2011-11-18 07:02:50 51°17.043 2°52.519 331.1 12.9 334 11.3
2011-11-18 07:02:56 51°17.062 2°52.503 330.9 13 334 11.4
2011-11-18 07:03:00 51°17.075 2°52.493 330.4 12.9 333 11.3
2011-11-18 07:03:06 51°17.094 2°52.477 330.1 12.9 333 11.4
2011-11-18 07:03:10 51°17.106 2°52.467 330.2 12.8 333 11.4
2011-11-18 07:03:16 51°17.125 2°52.451 329.9 12.7 332 11.5
2011-11-18 07:03:20 51°17.138 2°52.441 329.7 12.8 332 11.4
2011-11-18 07:03:25 51°17.153 2°52.427 329 12.9 332 11.7
2011-11-18 07:03:30 51°17.169 2°52.414 328.8 13 332 11.6
2011-11-18 07:03:36 51°17.188 2°52.398 329.1 13 333 11.6
2011-11-18 07:03:40 51°17.2 2°52.387 329.4 13 333 11.8
2011-11-18 07:03:45 51°17.216 2°52.374 329.6 12.8 332 11.7
2011-11-18 07:03:51 51°17.234 2°52.358 329.8 13 333 11.8
2011-11-18 07:03:56 51°17.25 2°52.345 330.1 13 334 11.8
2011-11-18 07:04:00 51°17.262 2°52.335 330.3 12.9 333 12
2011-11-18 07:04:05 51°17.279 2°52.322 330.4 13 334 11.8
2011-11-18 07:04:10 51°17.295 2°52.309 331 13 334 12
2011-11-18 07:04:16 51°17.314 2°52.294 331.2 13.1 335 12.1
2011-11-18 07:04:20 51°17.326 2°52.284 331.4 13.2 335 12.1
2011-11-18 07:04:25 51°17.342 2°52.272 331.7 13 335 12.2
2011-11-18 07:04:30 51°17.358 2°52.26 332.3 12.8 336 12.3
2011-11-18 07:04:35 51°17.374 2°52.248 332.9 13 335 12.7
2011-11-18 07:04:40 51°17.391 2°52.236 333.1 13 336 12.8
2011-11-18 07:04:45 51°17.408 2°52.224 333.3 13 336 12.8
2011-11-18 07:04:50 51°17.424 2°52.212 333.3 12.9 335 12.7
2011-11-18 07:04:56 51°17.444 2°52.199 333.3 12.9 336 12.8
2011-11-18 07:05:00 51°17.457 2°52.189 333.5 13 335 12.8
2011-11-18 07:05:06 51°17.476 2°52.174 332.7 13.6 336 12.9
2011-11-18 07:05:10 51°17.489 2°52.163 330.9 13.4 334 12.8
2011-11-18 07:05:16 51°17.508 2°52.147 329.1 12.9 332 12.9
2011-11-18 07:05:20 51°17.52 2°52.135 328.1 12.9 330 12.7
2011-11-18 07:05:25 51°17.535 2°52.121 327.4 12.8 330 12.9
2011-11-18 07:05:30 51°17.55 2°52.107 327.1 12.9 330 12.8
2011-11-18 07:05:35 51°17.565 2°52.092 326.9 12.8 330 13
2011-11-18 07:05:40 51°17.58 2°52.078 327.4 12.8 330 12.8
2011-11-18 07:05:46 51°17.599 2°52.062 328.4 13.1 333 12.7
2011-11-18 07:05:51 51°17.615 2°52.049 329.1 13.1 333 12.6
2011-11-18 07:05:56 51°17.631 2°52.036 330 13.1 333 12.5
2011-11-18 07:06:00 51°17.644 2°52.025 330 13 333 12.2
2011-11-18 07:06:05 51°17.66 2°52.012 329.5 13.1 332 11.9
2011-11-18 07:06:11 51°17.678 2°51.996 328.9 12.9 333 11.9
2011-11-18 07:06:16 51°17.694 2°51.982 329.5 12.9 332 11.8
2011-11-18 07:06:20 51°17.706 2°51.971 328.9 12.9 331 11.7
2011-11-18 07:06:25 51°17.722 2°51.957 328.2 13 333 11.8
2011-11-18 07:06:31 51°17.741 2°51.941 328.3 12.9 331 12
2011-11-18 07:06:36 51°17.756 2°51.927 328.3 12.9 332 11.7
2011-11-18 07:06:40 51°17.768 2°51.916 328.2 13.1 332 11.7
2011-11-18 07:06:46 51°17.787 2°51.9 328.2 12.8 332 11.9
2011-11-18 07:06:50 51°17.799 2°51.889 328.5 12.9 331 11.5
2011-11-18 07:06:55 51°17.814 2°51.875 328.4 12.9 331 11.6
2011-11-18 07:07:00 51°17.83 2°51.861 328 12.9 331 11.6
2011-11-18 07:07:05 51°17.845 2°51.847 327.6 12.9 331 11.9
2011-11-18 07:07:10 51°17.86 2°51.833 327.7 13 332 11.7
2011-11-18 07:07:15 51°17.876 2°51.819 328.3 13 332 11.7
2011-11-18 07:07:20 51°17.892 2°51.806 328.6 13 332 11.8
2011-11-18 07:07:25 51°17.907 2°51.792 329 13 334 11.8
2011-11-18 07:07:31 51°17.926 2°51.777 330.3 13.2 335 11.9
2011-11-18 07:07:36 51°17.942 2°51.766 331.9 13 336 11.9
2011-11-18 07:07:40 51°17.955 2°51.756 333.6 13 337 12
2011-11-18 07:07:46 51°17.975 2°51.743 334 13 337 11.7
2011-11-18 07:07:51 51°17.991 2°51.732 334.3 13.3 339 12
2011-11-18 07:07:56 51°18.008 2°51.721 335.3 13.2 338 12.2
2011-11-18 07:08:00 51°18.021 2°51.712 335.4 13.1 338 12.1
2011-11-18 07:08:05 51°18.038 2°51.701 335.6 13.1 338 12.2
2011-11-18 07:08:11 51°18.058 2°51.687 335.2 13.1 338 12.4
2011-11-18 07:08:16 51°18.074 2°51.676 335.2 13 337 12.4
2011-11-18 07:08:20 51°18.087 2°51.667 334.9 13 337 12.5
2011-11-18 07:08:25 51°18.103 2°51.656 334.7 13.1 338 12.6
2011-11-18 07:08:31 51°18.122 2°51.642 334.7 13.2 337 12.4
2011-11-18 07:08:36 51°18.138 2°51.63 334.3 13 336 12.5
2011-11-18 07:08:40 51°18.151 2°51.621 334 13 336 12.7
2011-11-18 07:08:46 51°18.17 2°51.607 333.8 13 336 12.7
2011-11-18 07:08:50 51°18.183 2°51.597 333.9 13.1 336 13
2011-11-18 07:08:56 51°18.203 2°51.583 333.8 13.3 337 13.2
2011-11-18 07:09:00 51°18.216 2°51.574 334 13.3 338 13.2
2011-11-18 07:09:05 51°18.232 2°51.562 334.2 13 336 13.2
2011-11-18 07:09:10 51°18.248 2°51.55 334 13 336 13.5
2011-11-18 07:09:15 51°18.264 2°51.538 333.5 13.2 337 13.5
2011-11-18 07:09:20 51°18.28 2°51.527 333.6 13.2 337 13.6
2011-11-18 07:09:25 51°18.297 2°51.515 334 13.1 337 13.8
2011-11-18 07:09:31 51°18.316 2°51.501 334 13 336 13.7
2011-11-18 07:09:36 51°18.332 2°51.489 333.5 13.2 336 13.7
2011-11-18 07:09:40 51°18.345 2°51.479 333.4 13.1 336 13.8
2011-11-18 07:09:46 51°18.365 2°51.465 333.1 13.2 336 14.1
2011-11-18 07:09:51 51°18.381 2°51.452 332.8 13.3 335 13.8
2011-11-18 07:09:56 51°18.397 2°51.439 332.3 13.1 335 14.3
2011-11-18 07:10:00 51°18.41 2°51.43 331.9 13.2 336 14.2
2011-11-18 07:10:06 51°18.429 2°51.414 331.7 13.1 334 14.7
2011-11-18 07:10:10 51°18.441 2°51.404 331.2 12.9 334 14.4
2011-11-18 07:10:15 51°18.458 2°51.392 331.1 13.1 335 14.7
2011-11-18 07:10:20 51°18.473 2°51.378 331.2 13.1 334 14.8
2011-11-18 07:10:25 51°18.489 2°51.366 330.9 13.2 334 14.8
2011-11-18 07:10:31 51°18.508 2°51.35 330.5 13.1 333 14.8
2011-11-18 07:10:36 51°18.524 2°51.336 329.9 13.1 333 15.2
2011-11-18 07:10:40 51°18.537 2°51.326 329.6 13.2 333 14.9
2011-11-18 07:10:45 51°18.552 2°51.312 328.9 13 332 15
2011-11-18 07:10:50 51°18.567 2°51.298 328.8 12.9 331 14.9
2011-11-18 07:10:56 51°18.586 2°51.281 328.2 13 330 15.3
2011-11-18 07:11:00 51°18.598 2°51.269 327.3 13 331 15.3
2011-11-18 07:11:05 51°18.614 2°51.255 327.6 13.1 332 15.4
2011-11-18 07:11:11 51°18.633 2°51.238 327.9 13.2 332 15.4
2011-11-18 07:11:16 51°18.647 2°51.224 327.9 13 331 15.5
2011-11-18 07:11:20 51°18.66 2°51.213 328.1 13.1 332 15.5
2011-11-18 07:11:26 51°18.678 2°51.197 329.3 13 333 15.7
2011-11-18 07:11:31 51°18.694 2°51.185 330.3 12.9 334 15.5
2011-11-18 07:11:35 51°18.707 2°51.174 331.6 12.4 333 15.7
2011-11-18 07:11:40 51°18.723 2°51.163 332.8 12.5 335 15.8
2011-11-18 07:11:46 51°18.743 2°51.149 333.6 12.9 335 15.9
2011-11-18 07:11:51 51°18.759 2°51.137 333.6 13 336 15.6
2011-11-18 07:11:56 51°18.777 2°51.126 333.8 13.1 337 15.9
2011-11-18 07:12:00 51°18.79 2°51.116 333.9 13.1 336 15.8
2011-11-18 07:12:06 51°18.81 2°51.102 333.6 12.9 336 16
2011-11-18 07:12:10 51°18.822 2°51.093 333.5 12.8 336 15.9
2011-11-18 07:12:15 51°18.839 2°51.081 333.7 13 335 16.2
2011-11-18 07:12:20 51°18.855 2°51.069 332.7 12.9 335 15.9
2011-11-18 07:12:25 51°18.871 2°51.056 332.4 13.1 335 16.1
2011-11-18 07:12:31 51°18.891 2°51.041 331.5 13.1 333 16.1
2011-11-18 07:12:36 51°18.907 2°51.028 330.8 13.1 334 16.2
2011-11-18 07:12:40 51°18.92 2°51.018 330.3 13.2 334 16.2
2011-11-18 07:12:45 51°18.936 2°51.004 330.1 13.1 333 16.2
2011-11-18 07:12:51 51°18.956 2°50.988 329.6 13.2 333 16.3
2011-11-18 07:12:56 51°18.971 2°50.974 329.4 12.9 331 16.3
2011-11-18 07:13:00 51°18.983 2°50.963 328.7 12.8 331 16.2
2011-11-18 07:13:05 51°18.998 2°50.948 328.1 13 330 16.2
2011-11-18 07:13:11 51°19.017 2°50.932 327.9 13 331 16.1
2011-11-18 07:13:16 51°19.033 2°50.917 327.8 13 330 16.2
2011-11-18 07:13:20 51°19.046 2°50.906 327.2 12.9 330 16.3
2011-11-18 07:13:26 51°19.065 2°50.889 327.1 12.9 331 16.3
2011-11-18 07:13:30 51°19.077 2°50.879 327.7 13.1 332 16.2
2011-11-18 07:13:36 51°19.096 2°50.862 328 12.9 331 16.1
2011-11-18 07:13:40 51°19.108 2°50.851 328.1 13 333 16.2
2011-11-18 07:13:45 51°19.125 2°50.838 328.9 13.1 333 16.1
2011-11-18 07:13:50 51°19.141 2°50.825 329.9 12.9 334 16
2011-11-18 07:13:55 51°19.157 2°50.813 331.1 13.1 335 15.8
2011-11-18 07:14:00 51°19.172 2°50.8 332.1 13 335 16
2011-11-18 07:14:05 51°19.189 2°50.789 333.4 13 337 16.1
2011-11-18 07:14:11 51°19.209 2°50.775 333.8 13.1 336 16
2011-11-18 07:14:16 51°19.226 2°50.764 334.3 13 338 15.8
2011-11-18 07:14:20 51°19.239 2°50.754 334.2 13 336 15.9
2011-11-18 07:14:26 51°19.259 2°50.741 334.4 13.2 338 15.7
2011-11-18 07:14:31 51°19.276 2°50.73 334.6 13.1 337 15.7
2011-11-18 07:14:36 51°19.292 2°50.718 334 13.2 336 15.4
2011-11-18 07:14:40 51°19.305 2°50.709 333.5 13 336 15.3
2011-11-18 07:14:45 51°19.321 2°50.696 333.2 13.2 336 14.9
2011-11-18 07:14:51 51°19.341 2°50.682 333.2 13.1 336 14.8
2011-11-18 07:14:56 51°19.357 2°50.67 333.2 13.1 336 14.5
2011-11-18 07:15:00 51°19.371 2°50.66 333.2 13.2 336 14.5
2011-11-18 07:15:05 51°19.387 2°50.648 332.9 13 336 14.4
2011-11-18 07:15:10 51°19.404 2°50.636 333.2 13.2 336 14.2
2011-11-18 07:15:16 51°19.423 2°50.622 333.2 13 335 13.8
2011-11-18 07:15:20 51°19.436 2°50.612 333 12.9 335 13.9
2011-11-18 07:15:25 51°19.451 2°50.599 332.9 12.9 335 13.9
2011-11-18 07:15:31 51°19.471 2°50.585 332.9 13.2 336 13.9
2011-11-18 07:15:36 51°19.487 2°50.573 333.2 13 335 13.6
2011-11-18 07:15:40 51°19.501 2°50.564 333.6 13 336 13.6
2011-11-18 07:15:44 51°19.514 2°50.554 334 13 335 13.6
2011-11-18 07:15:50 51°19.533 2°50.54 334 13 335 13.4
2011-11-18 07:15:56 51°19.553 2°50.525 333.5 13 335 13.3
2011-11-18 07:16:00 51°19.564 2°50.515 332.9 12.9 334 13
2011-11-18 07:16:05 51°19.58 2°50.502 332.7 13.1 334 13.1
2011-11-18 07:16:11 51°19.6 2°50.487 332.1 13 334 13.1
2011-11-18 07:16:16 51°19.616 2°50.474 331.2 13 333 13.4
2011-11-18 07:16:20 51°19.628 2°50.463 330.5 12.9 333 13.5
2011-11-18 07:16:26 51°19.647 2°50.447 330.5 13 333 13.7
2011-11-18 07:16:31 51°19.663 2°50.434 330.2 13.1 333 13.7
2011-11-18 07:16:36 51°19.68 2°50.42 329.8 13.2 333 13.9
2011-11-18 07:16:40 51°19.693 2°50.409 329.4 13.1 332 14.1
2011-11-18 07:16:46 51°19.711 2°50.392 328.3 12.9 331 14.4
2011-11-18 07:16:51 51°19.727 2°50.377 328.1 13 329 14.4
2011-11-18 07:16:56 51°19.741 2°50.363 327 12.8 330 14.7
2011-11-18 07:17:00 51°19.754 2°50.351 327.1 12.9 329 14.6
2011-11-18 07:17:05 51°19.769 2°50.337 326.9 12.8 330 15
2011-11-18 07:17:11 51°19.788 2°50.321 327.6 12.9 331 15
2011-11-18 07:17:16 51°19.803 2°50.307 328.5 12.9 332 15.2
2011-11-18 07:17:20 51°19.816 2°50.297 329.3 12.8 333 15.1
2011-11-18 07:17:26 51°19.835 2°50.281 330.4 12.9 333 15.1
2011-11-18 07:17:30 51°19.849 2°50.271 330.9 12.9 334 14.8
2011-11-18 07:17:36 51°19.868 2°50.257 331.8 12.8 335 15
2011-11-18 07:17:40 51°19.88 2°50.247 332.5 12.9 335 15
2011-11-18 07:17:46 51°19.898 2°50.232 333 12.9 336 15.4
2011-11-18 07:17:50 51°19.911 2°50.223 333.9 12.9 336 15.4
2011-11-18 07:17:56 51°19.931 2°50.209 333.9 12.9 336 15.5
2011-11-18 07:18:00 51°19.944 2°50.2 334 12.9 336 15.7
2011-11-18 07:18:05 51°19.96 2°50.189 334 13 336 15.8
2011-11-18 07:18:10 51°19.977 2°50.177 333.5 13 336 16.2
2011-11-18 07:18:15 51°19.993 2°50.165 333.2 12.9 336 16.5
2011-11-18 07:18:20 51°20.01 2°50.153 333 12.7 335 16.6
2011-11-18 07:18:25 51°20.027 2°50.142 333.4 12.9 336 16.8
2011-11-18 07:18:31 51°20.046 2°50.128 333.5 12.9 335 17.2
2011-11-18 07:18:36 51°20.062 2°50.115 332.5 12.9 335 17.2
2011-11-18 07:18:40 51°20.075 2°50.106 331.9 13 335 17.5
2011-11-18 07:18:46 51°20.094 2°50.09 331.3 12.9 334 17.8
2011-11-18 07:18:50 51°20.107 2°50.08 331 13.1 333 18
2011-11-18 07:18:55 51°20.123 2°50.066 329.5 13 332 18.1
2011-11-18 07:19:00 51°20.137 2°50.052 328.5 12.9 332 18.4
2011-11-18 07:19:05 51°20.154 2°50.039 327.9 13.1 332 18.6
2011-11-18 07:19:11 51°20.173 2°50.023 328.1 12.8 333 18.7
2011-11-18 07:19:16 51°20.189 2°50.011 330.4 12.8 335 19
2011-11-18 07:19:20 51°20.202 2°50.002 331.9 12.7 336 19.3
2011-11-18 07:19:25 51°20.217 2°49.99 333.6 12.8 336 19.4
2011-11-18 07:19:31 51°20.236 2°49.977 334.7 12.8 338 19.6
2011-11-18 07:19:36 51°20.253 2°49.967 335.3 12.9 339 19.9
2011-11-18 07:19:40 51°20.266 2°49.958 336.1 12.9 339 20.4
2011-11-18 07:19:45 51°20.283 2°49.948 336.6 12.9 339 20.5
2011-11-18 07:19:50 51°20.3 2°49.939 337.2 13 341 20.8
2011-11-18 07:19:56 51°20.321 2°49.928 338.2 12.9 342 21
2011-11-18 07:20:00 51°20.335 2°49.921 340 12.9 343 21
2011-11-18 07:20:05 51°20.353 2°49.913 341.3 12.9 343 21.3
2011-11-18 07:20:11 51°20.372 2°49.903 341.3 13.1 343 21.6
2011-11-18 07:20:16 51°20.39 2°49.895 341.5 13.1 345 21.7
2011-11-18 07:20:20 51°20.404 2°49.889 342.7 13.1 345 22.1
2011-11-18 07:20:26 51°20.425 2°49.88 343 13.1 345 22.2
2011-11-18 07:20:30 51°20.44 2°49.875 343.4 13.2 347 22.4
2011-11-18 07:20:35 51°20.457 2°49.868 343.5 13.1 345 22.5
2011-11-18 07:20:40 51°20.475 2°49.86 343 13.1 345 22.8
2011-11-18 07:20:46 51°20.496 2°49.85 342.7 13 344 23.2
2011-11-18 07:20:50 51°20.51 2°49.844 341.9 13 344 23.3
2011-11-18 07:20:55 51°20.527 2°49.836 341.7 13 344 23.6
2011-11-18 07:21:00 51°20.543 2°49.827 341.8 13.1 344 23.5
2011-11-18 07:21:05 51°20.56 2°49.82 342 12.7 344 23.7
2011-11-18 07:21:11 51°20.581 2°49.809 342 13 342 23.9
2011-11-18 07:21:16 51°20.599 2°49.801 341.1 13 343 23.9
2011-11-18 07:21:20 51°20.612 2°49.794 340.5 13 342 23.8
2011-11-18 07:21:26 51°20.633 2°49.783 340 13 343 24
2011-11-18 07:21:31 51°20.65 2°49.775 340 13 343 24.1
2011-11-18 07:21:36 51°20.667 2°49.766 340.3 13.2 343 24.2
2011-11-18 07:21:40 51°20.681 2°49.758 339.9 13.1 341 24.2
2011-11-18 07:21:44 51°20.694 2°49.75 338.4 13 340 24.4
2011-11-18 07:21:51 51°20.716 2°49.736 337.6 13 340 24.3
2011-11-18 07:21:56 51°20.733 2°49.725 336.6 13 339 24.1
2011-11-18 07:22:00 51°20.746 2°49.717 336 13 339 24.4
2011-11-18 07:22:05 51°20.763 2°49.707 336.1 13 339 24.4
2011-11-18 07:22:10 51°20.78 2°49.697 336.9 13.1 340 24.3
2011-11-18 07:22:16 51°20.8 2°49.685 337.3 13 340 24.1
2011-11-18 07:22:20 51°20.814 2°49.678 337.9 13.1 342 24.2
2011-11-18 07:22:25 51°20.831 2°49.669 338.6 13.1 342 24.4
2011-11-18 07:22:31 51°20.853 2°49.66 339.8 13 344 24.3
2011-11-18 07:22:36 51°20.87 2°49.651 341.3 13 343 24.5
2011-11-18 07:22:40 51°20.883 2°49.645 341.1 13 344 24.4
2011-11-18 07:22:46 51°20.904 2°49.635 341.4 13.1 344 24.4
2011-11-18 07:22:51 51°20.921 2°49.628 341.9 13 346 24.3
2011-11-18 07:22:56 51°20.939 2°49.62 342.6 13.1 344 24.4
2011-11-18 07:23:00 51°20.953 2°49.614 342.1 13 344 24.5
2011-11-18 07:23:06 51°20.973 2°49.604 341.2 13 343 24.2
2011-11-18 07:23:11 51°20.99 2°49.595 341 12.9 343 24.2
2011-11-18 07:23:16 51°21.006 2°49.586 340.9 12.9 342 24.2
2011-11-18 07:23:20 51°21.02 2°49.58 340.5 13.1 343 24.1
2011-11-18 07:23:26 51°21.041 2°49.569 340.5 13 342 24.1
2011-11-18 07:23:30 51°21.054 2°49.563 340.1 12.9 343 24.2
2011-11-18 07:23:35 51°21.071 2°49.554 340.3 13 342 24
2011-11-18 07:23:40 51°21.088 2°49.545 339.6 13 342 24
2011-11-18 07:23:45 51°21.105 2°49.536 339.3 13.1 342 23.7
2011-11-18 07:23:51 51°21.126 2°49.525 338.9 12.9 342 23.8
2011-11-18 07:23:56 51°21.142 2°49.515 338.9 12.9 341 23.7
2011-11-18 07:24:00 51°21.156 2°49.509 338.7 12.9 342 23.7
2011-11-18 07:24:05 51°21.173 2°49.499 339 12.8 341 23.7
2011-11-18 07:24:11 51°21.193 2°49.489 339 12.9 343 23.4
2011-11-18 07:24:16 51°21.21 2°49.481 339.3 12.9 343 23.7
2011-11-18 07:24:20 51°21.224 2°49.474 340 12.8 342 23.7
2011-11-18 07:24:24 51°21.238 2°49.467 340 12.8 342 23.3
2011-11-18 07:24:30 51°21.258 2°49.457 339.6 12.7 342 23.5
2011-11-18 07:24:36 51°21.278 2°49.446 339.5 12.9 341 23.5
2011-11-18 07:24:40 51°21.292 2°49.439 339.1 12.9 342 23.3
2011-11-18 07:24:45 51°21.309 2°49.43 339.2 13 342 23.1
2011-11-18 07:24:50 51°21.326 2°49.421 339.2 12.8 342 23.1
2011-11-18 07:24:56 51°21.347 2°49.411 339.3 12.8 343 23.4
2011-11-18 07:25:00 51°21.36 2°49.404 340.4 12.8 344 23.1
2011-11-18 07:25:05 51°21.377 2°49.396 340.4 12.7 343 23.1
2011-11-18 07:25:11 51°21.397 2°49.386 341.1 12.8 342 22.8
2011-11-18 07:25:16 51°21.413 2°49.377 340.3 12.7 342 22.9
2011-11-18 07:25:20 51°21.426 2°49.369 339.1 12.8 341 22.6
2011-11-18 07:25:26 51°21.446 2°49.357 337.8 12.7 339 23.1
2011-11-18 07:25:31 51°21.462 2°49.347 336.8 12.8 339 23.2
2011-11-18 07:25:36 51°21.479 2°49.337 336.7 12.8 339 23.3
2011-11-18 07:25:40 51°21.492 2°49.329 337 12.8 339 23.2
2011-11-18 07:25:46 51°21.512 2°49.317 336.9 12.7 339 23.4
2011-11-18 07:25:51 51°21.529 2°49.307 337.2 12.8 339 23.2
2011-11-18 07:25:56 51°21.546 2°49.296 336.8 12.8 338 23.2
2011-11-18 07:26:00 51°21.559 2°49.288 336.2 12.7 338 23.1
2011-11-18 07:26:04 51°21.572 2°49.279 335.4 12.8 337 23.5
2011-11-18 07:26:11 51°21.594 2°49.263 335 12.6 336 23.4
2011-11-18 07:26:16 51°21.609 2°49.251 334.1 12.6 335 23.5
2011-11-18 07:26:20 51°21.622 2°49.241 333.4 12.6 333 23.5
2011-11-18 07:26:25 51°21.637 2°49.227 330 12.5 330 23.5
2011-11-18 07:26:30 51°21.652 2°49.212 326.6 12.4 327 24.1
2011-11-18 07:26:36 51°21.669 2°49.193 324.2 12.6 326 24.1
2011-11-18 07:26:40 51°21.679 2°49.178 321.6 12.5 322 24.3
2011-11-18 07:26:45 51°21.692 2°49.161 319.6 12.5 321 24.3
2011-11-18 07:26:50 51°21.705 2°49.143 317.5 12.4 320 24.4
2011-11-18 07:26:55 51°21.718 2°49.125 316.5 12.4 318 24.5
2011-11-18 07:27:00 51°21.731 2°49.106 315.5 12.4 317 24.5
2011-11-18 07:27:05 51°21.744 2°49.088 315.1 12.4 319 24.6
2011-11-18 07:27:11 51°21.759 2°49.065 315.3 12.5 317 24.7
2011-11-18 07:27:16 51°21.772 2°49.048 315.7 12.5 320 24.4
2011-11-18 07:27:20 51°21.783 2°49.033 316.1 12.5 318 24.7
2011-11-18 07:27:26 51°21.798 2°49.01 315.8 12.5 317 24.7
2011-11-18 07:27:31 51°21.811 2°48.992 316.1 12.5 319 24.4
2011-11-18 07:27:36 51°21.824 2°48.973 316.7 12.6 318 24.5
2011-11-18 07:27:40 51°21.834 2°48.959 316.5 12.6 318 24.7
2011-11-18 07:27:46 51°21.851 2°48.937 316.4 12.6 320 24.8
2011-11-18 07:27:50 51°21.861 2°48.922 316.5 12.7 318 24.6
2011-11-18 07:27:55 51°21.874 2°48.904 316.5 12.6 320 24.6
2011-11-18 07:28:00 51°21.887 2°48.885 316.5 12.7 318 24.5
2011-11-18 07:28:05 51°21.9 2°48.867 316.6 12.6 320 24.8
2011-11-18 07:28:11 51°21.917 2°48.846 318 12.6 321 24.9
2011-11-18 07:28:16 51°21.93 2°48.828 318.9 12.6 321 24.8
2011-11-18 07:28:20 51°21.942 2°48.814 319.4 12.6 322 24.5
2011-11-18 07:28:25 51°21.955 2°48.797 319.1 12.6 322 24.5
2011-11-18 07:28:31 51°21.972 2°48.776 318.8 12.6 321 24.4
2011-11-18 07:28:36 51°21.985 2°48.758 318 12.6 320 24.7
2011-11-18 07:28:40 51°21.996 2°48.744 318.1 12.5 320 24.5
2011-11-18 07:28:44 51°22.007 2°48.729 318.3 12.6 320 24.9
2011-11-18 07:28:50 51°22.023 2°48.708 317.9 12.5 320 24.8
2011-11-18 07:28:56 51°22.038 2°48.686 317.9 12.6 319 24.7
2011-11-18 07:29:00 51°22.049 2°48.672 317.7 12.5 320 25.1
2011-11-18 07:29:05 51°22.062 2°48.653 317.5 12.6 320 24.9
2011-11-18 07:29:10 51°22.075 2°48.635 316.8 12.6 319 24.5
2011-11-18 07:29:16 51°22.091 2°48.613 316.6 12.6 319 24.9
2011-11-18 07:29:20 51°22.101 2°48.598 317.5 12.6 320 24.6
2011-11-18 07:29:25 51°22.115 2°48.58 317.8 12.7 320 25
2011-11-18 07:29:31 51°22.131 2°48.559 318.6 12.7 320 24.8
2011-11-18 07:29:36 51°22.145 2°48.542 318.6 12.6 322 25.1
2011-11-18 07:29:40 51°22.156 2°48.528 319.5 12.7 322 25.1
2011-11-18 07:29:46 51°22.173 2°48.507 320.7 12.7 322 24.8
2011-11-18 07:29:51 51°22.187 2°48.491 320.7 12.6 322 25.1
2011-11-18 07:29:56 51°22.201 2°48.474 321.1 12.7 324 24.8
2011-11-18 07:30:00 51°22.213 2°48.461 321.2 12.7 323 24.7
2011-11-18 07:30:06 51°22.229 2°48.44 321 12.6 323 24.2
2011-11-18 07:30:11 51°22.243 2°48.423 321.2 12.7 323 23.8
2011-11-18 07:30:16 51°22.256 2°48.406 320.3 12.6 322 23.4
2011-11-18 07:30:20 51°22.267 2°48.392 319.6 12.6 321 23
2011-11-18 07:30:24 51°22.278 2°48.377 318.4 12.6 320 23.3
2011-11-18 07:30:31 51°22.297 2°48.352 317.9 12.6 321 22.6
2011-11-18 07:30:35 51°22.308 2°48.337 317.9 12.6 319 22.6
2011-11-18 07:30:40 51°22.321 2°48.319 317.6 12.6 320 22.8
2011-11-18 07:30:45 51°22.334 2°48.301 317.5 12.6 320 21.6
2011-11-18 07:30:50 51°22.347 2°48.283 317.3 12.5 320 20.8
2011-11-18 07:30:56 51°22.363 2°48.261 316.5 12.5 317 19.5
2011-11-18 07:31:00 51°22.373 2°48.246 315.1 12.5 318 17.8
2011-11-18 07:31:05 51°22.386 2°48.226 313.9 12.5 316 15.4
2011-11-18 07:31:11 51°22.401 2°48.203 311.8 12.6 315 16.8
2011-11-18 07:31:16 51°22.413 2°48.182 309.1 12.6 312 17.7
2011-11-18 07:31:20 51°22.422 2°48.166 307.3 12.4 311 18.1
2011-11-18 07:31:26 51°22.434 2°48.14 305.8 12.3 308 18.3
2011-11-18 07:31:31 51°22.444 2°48.117 304.2 12.3 307 18.7
2011-11-18 07:31:35 51°22.452 2°48.1 303.1 12.4 306 18.8
2011-11-18 07:31:40 51°22.462 2°48.077 301.9 12.3 305 19.3
2011-11-18 07:31:46 51°22.473 2°48.05 301.1 12.4 304 19.3
2011-11-18 07:31:50 51°22.481 2°48.032 300.2 12.3 304 19.1
2011-11-18 07:31:55 51°22.49 2°48.009 299.7 12.4 303 19.5
2011-11-18 07:32:00 51°22.499 2°47.986 299.5 12.4 303 19.1
2011-11-18 07:32:06 51°22.511 2°47.959 299.6 12.4 304 19.8
2011-11-18 07:32:11 51°22.521 2°47.936 300.3 12.4 305 19.6
2011-11-18 07:32:16 51°22.53 2°47.913 301 12.4 305 19.7
2011-11-18 07:32:20 51°22.538 2°47.896 301.4 12.4 306 20.1
2011-11-18 07:32:26 51°22.551 2°47.868 302.5 12.5 306 20.3
2011-11-18 07:32:31 51°22.56 2°47.846 302 12.6 305 20.3
2011-11-18 07:32:36 51°22.57 2°47.823 301.3 12.5 304 20.4
2011-11-18 07:32:40 51°22.578 2°47.804 301.4 12.5 304 20.3
2011-11-18 07:32:45 51°22.587 2°47.781 301 12.4 303 20.3
2011-11-18 07:32:51 51°22.598 2°47.753 300.6 12.5 303 20.2
2011-11-18 07:32:55 51°22.606 2°47.735 300.6 12.5 305 19.8
2011-11-18 07:33:00 51°22.616 2°47.712 300.8 12.5 304 19.5
2011-11-18 07:33:05 51°22.626 2°47.689 300.6 12.5 304 18.9
2011-11-18 07:33:10 51°22.636 2°47.666 300.5 12.5 303 19.2
2011-11-18 07:33:16 51°22.647 2°47.639 299.6 12.5 303 18.5
2011-11-18 07:33:20 51°22.655 2°47.62 300 12.5 305 17.8
2011-11-18 07:33:25 51°22.665 2°47.598 301.1 12.6 307 17
2011-11-18 07:33:31 51°22.678 2°47.571 302.3 12.6 307 15.4
2011-11-18 07:33:36 51°22.689 2°47.549 303.5 12.5 308 15.7
2011-11-18 07:33:40 51°22.697 2°47.532 304.3 12.5 309 16.9
2011-11-18 07:33:46 51°22.71 2°47.506 305 12.5 308 17.9
2011-11-18 07:33:51 51°22.721 2°47.484 304.7 12.5 307 18.8
2011-11-18 07:33:55 51°22.729 2°47.466 303.6 12.5 306 19.1
2011-11-18 07:34:00 51°22.739 2°47.444 303 12.5 306 19.9
2011-11-18 07:34:06 51°22.751 2°47.416 302 12.6 305 20
2011-11-18 07:34:10 51°22.758 2°47.398 301.1 12.5 304 20.4
2011-11-18 07:34:15 51°22.769 2°47.375 300.9 12.5 306 20.9
2011-11-18 07:34:20 51°22.779 2°47.352 302 12.5 305 20.6
2011-11-18 07:34:26 51°22.791 2°47.325 302 12.5 306 21.2
2011-11-18 07:34:31 51°22.801 2°47.303 302.2 12.6 306 20.3
2011-11-18 07:34:36 51°22.811 2°47.28 302.7 12.6 306 21.3
2011-11-18 07:34:40 51°22.82 2°47.262 303 12.6 307 21.5
2011-11-18 07:34:45 51°22.831 2°47.241 304.9 12.6 309 21.4
2011-11-18 07:34:51 51°22.844 2°47.214 305.2 12.6 308 21.5
2011-11-18 07:34:56 51°22.855 2°47.193 305.3 12.6 309 20.8
2011-11-18 07:35:00 51°22.863 2°47.175 305.5 12.6 308 19.7
2011-11-18 07:35:05 51°22.874 2°47.153 305.7 12.6 309 18.1
2011-11-18 07:35:11 51°22.887 2°47.126 305.9 12.6 308 17.8
2011-11-18 07:35:15 51°22.896 2°47.109 304.7 12.6 308 19.1
2011-11-18 07:35:20 51°22.905 2°47.086 303.6 12.5 306 20
2011-11-18 07:35:25 51°22.915 2°47.063 302 12.5 304 20.6
2011-11-18 07:35:30 51°22.925 2°47.041 302 12.5 305 21.5
2011-11-18 07:35:36 51°22.937 2°47.013 301.7 12.5 303 21.9
2011-11-18 07:35:40 51°22.944 2°46.995 301 12.6 304 22.4
2011-11-18 07:35:45 51°22.954 2°46.971 301 12.6 303 22.7
2011-11-18 07:35:51 51°22.965 2°46.943 300.7 12.6 303 22.6
2011-11-18 07:35:56 51°22.975 2°46.92 300.6 12.6 304 23
2011-11-18 07:36:00 51°22.983 2°46.902 300.9 12.6 304 22.6
2011-11-18 07:36:06 51°22.995 2°46.874 301 12.6 305 20.8
2011-11-18 07:36:11 51°23.005 2°46.851 301.5 12.6 305 17.7
2011-11-18 07:36:15 51°23.013 2°46.834 302.8 12.6 308 20.4
2011-11-18 07:36:20 51°23.024 2°46.812 304.8 12.6 308 21.1
2011-11-18 07:36:26 51°23.038 2°46.786 305.9 12.6 310 22.4
2011-11-18 07:36:31 51°23.049 2°46.764 306.3 12.6 308 23.1
2011-11-18 07:36:36 51°23.06 2°46.743 306.6 12.6 310 23.6
2011-11-18 07:36:40 51°23.069 2°46.725 306.3 12.6 308 24
2011-11-18 07:36:46 51°23.081 2°46.699 305.9 12.6 308 24.6
2011-11-18 07:36:50 51°23.09 2°46.681 304.8 12.6 307 24.8
2011-11-18 07:36:55 51°23.1 2°46.659 304.4 12.5 308 25.2
2011-11-18 07:37:00 51°23.111 2°46.637 304.6 12.6 307 25.2
2011-11-18 07:37:05 51°23.121 2°46.614 304.8 12.5 307 25.2
2011-11-18 07:37:11 51°23.134 2°46.588 304.6 12.6 307 25.3
2011-11-18 07:37:16 51°23.144 2°46.565 304.8 12.5 307 25.1
2011-11-18 07:37:20 51°23.153 2°46.548 304.9 12.6 308 25.4
2011-11-18 07:37:25 51°23.164 2°46.526 305.6 12.6 308 25.6
2011-11-18 07:37:31 51°23.177 2°46.5 305.7 12.6 309 25.4
2011-11-18 07:37:36 51°23.188 2°46.478 306.1 12.6 307 23.9
2011-11-18 07:37:40 51°23.196 2°46.46 305.4 12.7 308 22
2011-11-18 07:37:46 51°23.209 2°46.433 305.2 12.6 307 22.7
2011-11-18 07:37:50 51°23.218 2°46.416 305 12.7 309 23.5
2011-11-18 07:37:56 51°23.231 2°46.389 305.6 12.7 307 25.2
2011-11-18 07:38:00 51°23.239 2°46.371 304.9 12.7 307 25.8
2011-11-18 07:38:05 51°23.249 2°46.348 303.5 12.6 304 26.3
2011-11-18 07:38:10 51°23.258 2°46.324 301.7 12.6 303 26.3
2011-11-18 07:38:16 51°23.27 2°46.297 301.2 12.5 304 25.6
2011-11-18 07:38:20 51°23.278 2°46.279 301.6 12.5 305 25.7
2011-11-18 07:38:26 51°23.289 2°46.251 301.3 12.5 303 26.3
2011-11-18 07:38:31 51°23.298 2°46.227 300.5 12.6 304 26.8
2011-11-18 07:38:36 51°23.308 2°46.204 301 12.6 304 26.7
2011-11-18 07:38:40 51°23.316 2°46.186 301.4 12.6 303 27.1
2011-11-18 07:38:46 51°23.327 2°46.158 300.8 12.6 302 26.8
2011-11-18 07:38:51 51°23.337 2°46.135 300.2 12.5 304 27.4
2011-11-18 07:38:55 51°23.345 2°46.116 301.3 12.5 304 27.4
2011-11-18 07:39:00 51°23.355 2°46.094 301.5 12.5 304 27
2011-11-18 07:39:06 51°23.366 2°46.066 301.7 12.5 304 25.9
2011-11-18 07:39:10 51°23.374 2°46.048 301.5 12.5 305 26.2
2011-11-18 07:39:15 51°23.384 2°46.025 301.6 12.5 303 26.4
2011-11-18 07:39:20 51°23.394 2°46.002 301.4 12.5 305 27.3
2011-11-18 07:39:25 51°23.403 2°45.979 301 12.5 303 27.5
2011-11-18 07:39:31 51°23.415 2°45.951 300.9 12.5 304 27.4
2011-11-18 07:39:36 51°23.424 2°45.928 300.9 12.5 304 28.1
2011-11-18 07:39:40 51°23.432 2°45.91 301.1 12.5 304 28.2
2011-11-18 07:39:45 51°23.442 2°45.887 301.8 12.5 305 27.8
2011-11-18 07:39:51 51°23.455 2°45.86 302.7 12.5 306 27.8
2011-11-18 07:39:56 51°23.465 2°45.838 303.8 12.6 307 27.6
2011-11-18 07:40:00 51°23.474 2°45.82 304.8 12.6 307 27.7
2011-11-18 07:40:06 51°23.487 2°45.793 305.1 12.7 307 28.2
2011-11-18 07:40:10 51°23.495 2°45.775 304.3 12.7 306 27.8
2011-11-18 07:40:15 51°23.505 2°45.752 303.8 12.6 306 27.3
2011-11-18 07:40:20 51°23.516 2°45.729 304.2 12.6 307 26.7
2011-11-18 07:40:25 51°23.526 2°45.707 303.9 12.7 306 27.9
2011-11-18 07:40:30 51°23.537 2°45.685 303.9 12.7 307 28.1
2011-11-18 07:40:35 51°23.547 2°45.662 304.4 12.6 307 28.2
2011-11-18 07:40:40 51°23.558 2°45.64 304.9 12.6 307 28.4
2011-11-18 07:40:46 51°23.571 2°45.613 304.9 12.6 307 28.5
2011-11-18 07:40:51 51°23.581 2°45.591 304.8 12.6 307 28.3
2011-11-18 07:40:56 51°23.591 2°45.568 304.1 12.6 306 27.8
2011-11-18 07:41:00 51°23.6 2°45.551 304.4 12.6 308 28.2
2011-11-18 07:41:06 51°23.613 2°45.524 305.1 12.6 308 28
2011-11-18 07:41:11 51°23.623 2°45.502 304.9 12.6 307 28.4
2011-11-18 07:41:15 51°23.632 2°45.484 304.8 12.6 308 28.6
2011-11-18 07:41:20 51°23.643 2°45.462 304.9 12.6 308 28.4
2011-11-18 07:41:26 51°23.656 2°45.435 305 12.6 308 28.1
2011-11-18 07:41:30 51°23.664 2°45.418 305.4 12.6 308 27.8
2011-11-18 07:41:35 51°23.675 2°45.396 305.7 12.6 308 27.5
2011-11-18 07:41:40 51°23.686 2°45.374 305.7 12.6 309 27.6
2011-11-18 07:41:45 51°23.697 2°45.352 306.5 12.6 309 28
2011-11-18 07:41:51 51°23.71 2°45.326 306.4 12.6 309 28.1
2011-11-18 07:41:56 51°23.72 2°45.304 305.7 12.5 307 27.8
2011-11-18 07:42:00 51°23.729 2°45.286 304.9 12.6 308 27.8
2011-11-18 07:42:05 51°23.739 2°45.264 304.4 12.5 306 27.8
2011-11-18 07:42:11 51°23.751 2°45.236 303.8 12.5 306 27.8
2011-11-18 07:42:16 51°23.76 2°45.213 303.4 12.5 305 28.1
2011-11-18 07:42:20 51°23.768 2°45.195 302.1 12.5 304 27.7
2011-11-18 07:42:26 51°23.78 2°45.168 301.4 12.5 304 27.5
2011-11-18 07:42:30 51°23.787 2°45.149 301.1 12.4 303 27.9
2011-11-18 07:42:36 51°23.799 2°45.122 301 12.4 304 28
2011-11-18 07:42:40 51°23.807 2°45.103 300.8 12.4 304 28.1
2011-11-18 07:42:45 51°23.816 2°45.08 300.8 12.5 304 28.2
2011-11-18 07:42:51 51°23.829 2°45.053 301.7 12.6 306 28.2
2011-11-18 07:42:56 51°23.839 2°45.031 302.4 12.5 305 27.8
2011-11-18 07:43:00 51°23.847 2°45.013 302.7 12.4 305 26.4
2011-11-18 07:43:04 51°23.855 2°44.995 302.9 12.5 305 26.5
2011-11-18 07:43:10 51°23.867 2°44.967 302.5 12.4 305 27.1
2011-11-18 07:43:15 51°23.876 2°44.945 302.3 12.5 304 27.5
2011-11-18 07:43:20 51°23.886 2°44.922 301.6 12.5 303 27.7
2011-11-18 07:43:25 51°23.895 2°44.898 300.9 12.5 304 28
2011-11-18 07:43:31 51°23.907 2°44.871 300.6 12.4 303 27.8
2011-11-18 07:43:36 51°23.916 2°44.847 300.3 12.5 303 27.7
2011-11-18 07:43:40 51°23.924 2°44.829 300.6 12.4 303 27.5
2011-11-18 07:43:45 51°23.934 2°44.806 301.1 12.5 304 27.9
2011-11-18 07:43:51 51°23.945 2°44.778 301 12.4 302 27.7
2011-11-18 07:43:56 51°23.954 2°44.755 300.1 12.5 303 27.8
2011-11-18 07:44:00 51°23.962 2°44.737 300.3 12.4 303 27.9
2011-11-18 07:44:05 51°23.971 2°44.714 300.5 12.5 304 27.4
2011-11-18 07:44:11 51°23.983 2°44.686 300.7 12.5 304 26.8
2011-11-18 07:44:16 51°23.993 2°44.664 302.3 12.5 306 26.7
2011-11-18 07:44:20 51°24.001 2°44.646 302.9 12.5 306 27
2011-11-18 07:44:25 51°24.011 2°44.623 302.7 12.5 305 26.7
2011-11-18 07:44:31 51°24.023 2°44.596 302.7 12.5 305 27.4
2011-11-18 07:44:36 51°24.033 2°44.573 302.7 12.5 306 27
2011-11-18 07:44:40 51°24.041 2°44.555 303.2 12.5 307 27.2
2011-11-18 07:44:44 51°24.048 2°44.537 303 12.5 305 27.4
2011-11-18 07:44:50 51°24.06 2°44.51 302.4 12.5 306 27.5
2011-11-18 07:44:56 51°24.072 2°44.483 302.9 12.4 305 27.7
2011-11-18 07:45:00 51°24.08 2°44.465 303.1 12.4 307 27.9
2011-11-18 07:45:05 51°24.091 2°44.443 303.4 12.5 306 28.2
2011-11-18 07:45:10 51°24.101 2°44.421 304 12.5 308 28.3
2011-11-18 07:45:16 51°24.114 2°44.394 304.8 12.6 307 28.4
2011-11-18 07:45:20 51°24.123 2°44.378 305 12.5 309 28.1
2011-11-18 07:45:26 51°24.136 2°44.351 305.8 12.6 308 27.8
2011-11-18 07:45:31 51°24.147 2°44.33 306.2 12.5 310 27.1
2011-11-18 07:45:36 51°24.158 2°44.308 306.3 12.5 309 26.3
2011-11-18 07:45:40 51°24.167 2°44.291 306.4 12.6 309 26
2011-11-18 07:45:46 51°24.18 2°44.264 305.2 12.6 307 25.4
2011-11-18 07:45:51 51°24.19 2°44.242 304.8 12.5 307 24.8
2011-11-18 07:45:56 51°24.201 2°44.22 304.8 12.5 309 23.8
2011-11-18 07:46:00 51°24.209 2°44.203 305.1 12.5 308 24.5
2011-11-18 07:46:05 51°24.22 2°44.181 304.8 12.6 308 26.1
2011-11-18 07:46:11 51°24.233 2°44.154 304.9 12.5 308 26.8
2011-11-18 07:46:16 51°24.244 2°44.133 305.4 12.5 308 26.9
2011-11-18 07:46:20 51°24.252 2°44.115 305.3 12.5 308 25.9
2011-11-18 07:46:26 51°24.264 2°44.088 304.8 12.4 306 25.3
2011-11-18 07:46:30 51°24.273 2°44.071 304.2 12.5 307 25.3
2011-11-18 07:46:36 51°24.285 2°44.044 304.2 12.5 306 25.5
2011-11-18 07:46:40 51°24.293 2°44.026 303.5 12.5 306 26.5
2011-11-18 07:46:46 51°24.305 2°43.999 303.2 12.5 305 26.9
2011-11-18 07:46:50 51°24.313 2°43.981 302.4 12.4 305 27.7
2011-11-18 07:46:56 51°24.325 2°43.954 302 12.3 305 27
2011-11-18 07:47:00 51°24.332 2°43.936 301.5 12.3 304 27.5
2011-11-18 07:47:05 51°24.342 2°43.913 301.1 12.3 304 27.8
2011-11-18 07:47:10 51°24.351 2°43.891 301.2 12.3 304 27.8
2011-11-18 07:47:16 51°24.362 2°43.864 301.3 12.1 303 27.6
2011-11-18 07:47:20 51°24.37 2°43.847 301.3 11.7 306 27.3
2011-11-18 07:47:25 51°24.379 2°43.827 302.6 11 305 27
2011-11-18 07:47:31 51°24.389 2°43.804 303.3 10.6 307 26.5
2011-11-18 07:47:36 51°24.398 2°43.786 303.5 10.1 308 25.7
2011-11-18 07:47:40 51°24.405 2°43.773 304 9.7 309 24.9
2011-11-18 07:47:46 51°24.414 2°43.754 304.5 9.1 309 24.1
2011-11-18 07:47:50 51°24.42 2°43.742 304.5 8.5 311 22.6
2011-11-18 07:47:55 51°24.428 2°43.728 305.1 8.1 310 21.3
2011-11-18 07:48:00 51°24.435 2°43.716 305.7 7.8 312 22.4
2011-11-18 07:48:06 51°24.443 2°43.701 305.7 7.4 311 23.7
2011-11-18 07:48:11 51°24.449 2°43.689 305.6 7.1 312 23.5
2011-11-18 07:48:16 51°24.455 2°43.678 304.9 6.8 310 24
2011-11-18 07:48:20 51°24.46 2°43.669 304.3 6.6 311 24.8
2011-11-18 07:48:26 51°24.467 2°43.656 303.4 6.3 310 24.4
2011-11-18 07:48:31 51°24.472 2°43.646 302.7 6.1 310 24.8
2011-11-18 07:48:36 51°24.477 2°43.635 301.8 5.9 309 24.7
2011-11-18 07:48:40 51°24.481 2°43.627 301.2 5.8 309 24.8
2011-11-18 07:48:45 51°24.485 2°43.617 300.5 5.6 308 25
2011-11-18 07:48:51 51°24.491 2°43.606 299.9 5.4 309 24.6
2011-11-18 07:48:56 51°24.496 2°43.597 299.8 5.3 309 25.2
2011-11-18 07:49:00 51°24.499 2°43.59 299.2 5.2 309 25.3
2011-11-18 07:49:06 51°24.504 2°43.58 298.8 5 309 25
2011-11-18 07:49:10 51°24.508 2°43.574 298.5 4.7 309 25.7
2011-11-18 07:49:16 51°24.513 2°43.564 298.7 4.5 311 25.6
2011-11-18 07:49:20 51°24.516 2°43.559 300.2 4.4 313 25.6
2011-11-18 07:49:25 51°24.52 2°43.552 302.4 4.2 314 25.7
2011-11-18 07:49:30 51°24.524 2°43.546 304.4 4 316 25.7
2011-11-18 07:49:35 51°24.528 2°43.541 306.8 3.8 320 25.6
2011-11-18 07:49:40 51°24.532 2°43.536 308.6 3.6 322 25.9
2011-11-18 07:49:46 51°24.537 2°43.531 309.9 3.2 326 25.9
2011-11-18 07:49:51 51°24.54 2°43.528 311.3 3 329 26
2011-11-18 07:49:56 51°24.544 2°43.525 314.6 2.9 333 26
2011-11-18 07:50:00 51°24.547 2°43.523 316.9 2.7 336 25.8